createdAt,value
2022-09-15T00:00:56.335Z,95210.66
2022-09-15T00:03:58.567Z,95211.47
2022-09-15T00:07:00.526Z,95213.75
2022-09-15T00:10:03.455Z,95203.50
2022-09-15T00:13:05.211Z,95200.81
2022-09-15T00:16:08.266Z,95197.06
2022-09-15T00:19:10.015Z,95192.25
2022-09-15T00:22:11.769Z,95184.38
2022-09-15T00:25:14.085Z,95181.47
2022-09-15T00:28:17.454Z,95176.06
2022-09-15T00:31:22.008Z,95184.16
2022-09-15T00:34:23.793Z,95180.84
2022-09-15T00:37:26.078Z,95180.63
2022-09-15T00:40:27.791Z,95175.44
2022-09-15T00:43:47.805Z,95180.03
2022-09-15T00:47:15.357Z,95179.19
2022-09-15T00:50:18.382Z,95183.78
2022-09-15T00:53:21.209Z,95182.38
2022-09-15T00:56:23.541Z,95183.19
2022-09-15T00:59:30.027Z,95187.56
2022-09-15T01:02:34.346Z,95183.78
2022-09-15T01:05:42.717Z,95183.56
2022-09-15T01:09:00.665Z,95188.94
2022-09-15T01:12:04.044Z,95180.63
2022-09-15T01:15:06.258Z,95174.63
2022-09-15T01:18:22.410Z,95180.41
2022-09-15T01:21:48.299Z,95180.41
2022-09-15T01:24:50.224Z,95182.88
2022-09-15T01:27:57.925Z,95183.69
2022-09-15T01:31:08.329Z,95185.59
2022-09-15T01:34:17.880Z,95181.59
2022-09-15T01:37:24.854Z,95178.66
2022-09-15T01:40:32.588Z,95173.88
2022-09-15T01:43:39.738Z,95178.22
2022-09-15T01:46:47.123Z,95170.34
2022-09-15T01:49:59.390Z,95174.09
2022-09-15T01:53:03.781Z,95171.16
2022-09-15T01:56:12.605Z,95165.16
2022-09-15T01:59:14.373Z,95161.63
2022-09-15T02:02:35.729Z,95171.59
2022-09-15T02:05:43.400Z,95165.59
2022-09-15T02:08:52.890Z,95167.72
2022-09-15T02:12:14.557Z,95166.91
2022-09-15T02:15:25.241Z,95164.44
2022-09-15T02:18:38.523Z,95156.53
2022-09-15T02:22:04.528Z,95168.41
2022-09-15T02:25:11.593Z,95158.63
2022-09-15T02:28:15.243Z,95169.69
2022-09-15T02:31:20.574Z,95159.94
2022-09-15T02:34:30.210Z,95163.25
2022-09-15T02:37:32.368Z,95162.66
2022-09-15T02:40:34.094Z,95161.00
2022-09-15T02:43:45.578Z,95164.53
2022-09-15T02:46:47.262Z,95168.50
2022-09-15T02:49:49.039Z,95157.91
2022-09-15T02:52:50.624Z,95161.09
2022-09-15T02:55:52.306Z,95162.13
2022-09-15T02:58:53.948Z,95153.06
2022-09-15T03:01:55.693Z,95154.13
2022-09-15T03:04:57.308Z,95160.78
2022-09-15T03:07:59.706Z,95150.47
2022-09-15T03:11:01.281Z,95161.47
2022-09-15T03:14:06.143Z,95160.66
2022-09-15T03:17:07.748Z,95166.28
2022-09-15T03:20:12.355Z,95163.78
2022-09-15T03:23:14.210Z,95169.44
2022-09-15T03:26:15.916Z,95171.31
2022-09-15T03:29:17.569Z,95165.09
2022-09-15T03:32:19.553Z,95169.28
2022-09-15T03:35:21.161Z,95165.19
2022-09-15T03:38:23.205Z,95161.03
2022-09-15T03:41:25.762Z,95162.69
2022-09-15T03:44:27.564Z,95148.59
2022-09-15T03:47:29.177Z,95162.91
2022-09-15T03:50:31.579Z,95157.75
2022-09-15T03:53:34.503Z,95164.19
2022-09-15T03:56:36.242Z,95171.09
2022-09-15T03:59:37.860Z,95172.75
2022-09-15T04:02:39.498Z,95165.47
2022-09-15T04:05:42.166Z,95160.91
2022-09-15T04:08:44.061Z,95154.06
2022-09-15T04:11:45.940Z,95152.81
2022-09-15T04:14:47.705Z,95152.56
2022-09-15T04:17:49.688Z,95139.97
2022-09-15T04:20:51.317Z,95153.16
2022-09-15T04:23:54.162Z,95150.25
2022-09-15T04:26:55.822Z,95141.31
2022-09-15T04:29:57.593Z,95139.22
2022-09-15T04:32:59.204Z,95140.88
2022-09-15T04:36:06.145Z,95148.16
2022-09-15T04:39:07.839Z,95142.53
2022-09-15T04:42:09.499Z,95137.50
2022-09-15T04:45:11.293Z,95131.75
2022-09-15T04:48:15.297Z,95129.63
2022-09-15T04:51:20.026Z,95131.75
2022-09-15T04:54:21.882Z,95132.47
2022-09-15T04:57:23.526Z,95128.34
2022-09-15T05:00:26.538Z,95136.66
2022-09-15T05:03:28.160Z,95123.56
2022-09-15T05:06:29.812Z,95136.81
2022-09-15T05:09:31.452Z,95139.28
2022-09-15T05:12:33.332Z,95141.16
2022-09-15T05:15:35.193Z,95142.59
2022-09-15T05:18:36.798Z,95140.72
2022-09-15T05:21:38.617Z,95141.75
2022-09-15T05:24:40.256Z,95149.03
2022-09-15T05:27:41.913Z,95151.28
2022-09-15T05:30:44.594Z,95155.88
2022-09-15T05:33:48.274Z,95145.06
2022-09-15T05:36:49.884Z,95149.41
2022-09-15T05:39:51.532Z,95145.63
2022-09-15T05:42:53.138Z,95158.09
2022-09-15T05:45:55.172Z,95152.13
2022-09-15T05:48:58.267Z,95150.59
2022-09-15T05:52:00.216Z,95150.38
2022-09-15T05:55:01.825Z,95149.06
2022-09-15T05:58:03.834Z,95149.69
2022-09-15T06:01:26.824Z,95153.59
2022-09-15T06:04:28.673Z,95152.28
2022-09-15T06:07:30.331Z,95155.59
2022-09-15T06:10:32.097Z,95161.00
2022-09-15T06:13:34.514Z,95152.66
2022-09-15T06:16:36.224Z,95146.78
2022-09-15T06:19:37.879Z,95147.63
2022-09-15T06:22:39.971Z,95141.16
2022-09-15T06:25:41.610Z,95140.56
2022-09-15T06:28:51.537Z,95155.88
2022-09-15T06:31:53.267Z,95164.78
2022-09-15T06:34:54.920Z,95171.00
2022-09-15T06:37:56.540Z,95173.47
2022-09-15T06:40:59.349Z,95165.97
2022-09-15T06:44:01.129Z,95169.63
2022-09-15T06:47:04.059Z,95172.72
2022-09-15T06:50:06.006Z,95176.59
2022-09-15T06:53:07.683Z,95174.72
2022-09-15T06:56:14.676Z,95182.13
2022-09-15T06:59:16.996Z,95190.84
2022-09-15T07:02:18.679Z,95191.66
2022-09-15T07:05:20.497Z,95183.09
2022-09-15T07:08:22.251Z,95188.50
2022-09-15T07:11:24.730Z,95181.81
2022-09-15T07:14:26.410Z,95187.84
2022-09-15T07:17:29.080Z,95186.78
2022-09-15T07:20:30.688Z,95190.09
2022-09-15T07:23:33.404Z,95193.16
2022-09-15T07:26:35.194Z,95196.22
2022-09-15T07:29:38.323Z,95189.50
2022-09-15T07:32:41.115Z,95198.56
2022-09-15T07:35:43.583Z,95202.25
2022-09-15T07:38:48.024Z,95200.72
2022-09-15T07:41:49.613Z,95201.09
2022-09-15T07:44:51.585Z,95201.44
2022-09-15T07:47:54.502Z,95206.13
2022-09-15T07:50:56.361Z,95207.34
2022-09-15T07:53:58.025Z,95213.09
2022-09-15T07:56:59.657Z,95202.88
2022-09-15T08:00:02.177Z,95202.41
2022-09-15T08:03:14.316Z,95197.56
2022-09-15T08:06:18.206Z,95213.13
2022-09-15T08:09:19.997Z,95217.59
2022-09-15T08:12:21.668Z,95217.72
2022-09-15T08:15:23.380Z,95223.72
2022-09-15T08:18:25.334Z,95224.06
2022-09-15T08:21:28.280Z,95219.84
2022-09-15T08:24:29.991Z,95225.97
2022-09-15T08:27:32.026Z,95226.56
2022-09-15T08:30:33.704Z,95217.88
2022-09-15T08:33:35.865Z,95222.47
2022-09-15T08:36:37.516Z,95229.75
2022-09-15T08:39:39.094Z,95217.25
2022-09-15T08:42:44.828Z,95217.94
2022-09-15T08:45:55.705Z,95215.81
2022-09-15T08:49:26.832Z,95217.50
2022-09-15T08:52:52.554Z,95219.25
2022-09-15T08:55:55.953Z,95217.22
2022-09-15T08:58:57.677Z,95223.56
2022-09-15T09:02:32.182Z,95228.94
2022-09-15T09:05:56.968Z,95215.91
2022-09-15T09:09:04.633Z,95216.19
2022-09-15T09:12:20.869Z,95224.47
2022-09-15T09:15:28.989Z,95215.69
2022-09-15T09:18:50.669Z,95222.03
2022-09-15T09:21:57.793Z,95216.22
2022-09-15T09:25:11.647Z,95222.06
2022-09-15T09:28:32.274Z,95216.03
2022-09-15T09:31:35.664Z,95216.81
2022-09-15T09:34:45.499Z,95227.06
2022-09-15T09:37:47.644Z,95238.38
2022-09-15T09:40:49.986Z,95225.09
2022-09-15T09:43:55.100Z,95226.38
2022-09-15T09:46:56.795Z,95215.53
2022-09-15T09:49:59.847Z,95218.81
2022-09-15T09:53:18.908Z,95228.50
2022-09-15T09:56:25.766Z,95226.19
2022-09-15T09:59:32.318Z,95217.59
2022-09-15T10:02:46.882Z,95223.50
2022-09-15T10:06:13.549Z,95217.34
2022-09-15T10:09:19.576Z,95212.75
2022-09-15T10:12:33.956Z,95209.09
2022-09-15T10:15:36.736Z,95208.84
2022-09-15T10:18:39.164Z,95210.84
2022-09-15T10:21:40.777Z,95208.44
2022-09-15T10:24:42.477Z,95207.50
2022-09-15T10:27:44.138Z,95193.50
2022-09-15T10:31:07.640Z,95184.38
2022-09-15T10:34:30.561Z,95195.88
2022-09-15T10:37:57.094Z,95198.44
2022-09-15T10:41:23.668Z,95204.59
2022-09-15T10:44:43.365Z,95197.47
2022-09-15T10:47:53.936Z,95195.56
2022-09-15T10:51:17.086Z,95200.91
2022-09-15T10:54:40.580Z,95202.06
2022-09-15T10:58:16.396Z,95208.22
2022-09-15T11:01:30.009Z,95203.38
2022-09-15T11:05:05.670Z,95209.03
2022-09-15T11:08:39.239Z,95206.81
2022-09-15T11:11:55.201Z,95198.19
2022-09-15T11:15:35.702Z,95204.78
2022-09-15T11:18:56.199Z,95211.63
2022-09-15T11:22:09.120Z,95200.38
2022-09-15T11:25:25.402Z,95201.00
2022-09-15T11:28:36.070Z,95205.94
2022-09-15T11:31:44.802Z,95207.91
2022-09-15T11:35:26.504Z,95192.19
2022-09-15T11:38:48.876Z,95195.56
2022-09-15T11:41:56.507Z,95203.28
2022-09-15T11:45:03.590Z,95207.31
2022-09-15T11:48:15.629Z,95196.38
2022-09-15T11:51:23.285Z,95182.47
2022-09-15T11:54:38.601Z,95195.22
2022-09-15T11:57:52.982Z,95206.50
2022-09-15T12:01:01.653Z,95208.22
2022-09-15T12:04:17.879Z,95202.78
2022-09-15T12:07:29.038Z,95197.91
2022-09-15T12:10:36.739Z,95197.09
2022-09-15T12:13:41.216Z,95203.00
2022-09-15T12:16:44.512Z,95196.75
2022-09-15T12:19:55.700Z,95194.06
2022-09-15T12:23:01.570Z,95203.41
2022-09-15T12:26:22.110Z,95204.63
2022-09-15T12:29:26.775Z,95203.97
2022-09-15T12:32:30.198Z,95211.34
2022-09-15T12:35:33.877Z,95207.00
2022-09-15T12:38:35.884Z,95203.09
2022-09-15T12:42:08.768Z,95189.69
2022-09-15T12:45:27.324Z,95197.91
2022-09-15T12:48:35.853Z,95191.09
2022-09-15T12:51:37.622Z,95181.44
2022-09-15T12:54:45.424Z,95169.66
2022-09-15T12:57:53.893Z,95177.19
2022-09-15T13:01:18.832Z,95173.03
2022-09-15T13:04:43.652Z,95165.81
2022-09-15T13:07:57.567Z,95164.59
2022-09-15T13:11:08.209Z,95156.69
2022-09-15T13:14:23.434Z,95167.25
2022-09-15T13:17:27.184Z,95154.09
2022-09-15T13:20:34.208Z,95159.44
2022-09-15T13:23:43.752Z,95155.66
2022-09-15T13:26:52.014Z,95151.88
2022-09-15T13:30:07.400Z,95157.06
2022-09-15T13:33:25.781Z,95184.47
2022-09-15T13:40:41.186Z,95196.50
2022-09-15T13:44:04.725Z,95196.41
2022-09-15T13:47:23.376Z,95204.22
2022-09-15T13:50:34.390Z,95203.34
2022-09-15T13:54:02.469Z,95227.25
2022-09-15T13:57:04.669Z,95232.09
2022-09-15T14:00:11.686Z,95217.94
2022-09-15T14:03:28.153Z,95244.53
2022-09-15T14:06:37.046Z,95241.22
2022-09-15T14:09:46.672Z,95253.19
2022-09-15T14:12:49.052Z,95256.78
2022-09-15T14:16:27.991Z,95265.28
2022-09-15T14:19:39.376Z,95254.63
2022-09-15T14:22:41.088Z,95257.78
2022-09-15T14:25:46.210Z,95267.41
2022-09-15T14:28:51.409Z,95264.09
2022-09-15T14:31:54.137Z,95272.91
2022-09-15T14:34:59.713Z,95276.94
2022-09-15T14:38:01.789Z,95274.78
2022-09-15T14:41:03.799Z,95271.50
2022-09-15T14:47:46.893Z,95290.69
2022-09-15T14:51:00.273Z,95303.75
2022-09-15T14:54:03.501Z,95291.72
2022-09-15T14:57:09.112Z,95318.63
2022-09-15T15:00:19.139Z,95315.88
2022-09-15T15:03:25.173Z,95318.72
2022-09-15T15:06:54.881Z,95326.03
2022-09-15T15:10:06.633Z,95331.50
2022-09-15T15:13:15.175Z,95337.56
2022-09-15T15:16:29.761Z,95346.34
2022-09-15T15:19:38.706Z,95336.44
2022-09-15T15:22:42.433Z,95340.78
2022-09-15T15:25:44.356Z,95346.63
2022-09-15T15:28:46.230Z,95344.78
2022-09-15T15:31:48.015Z,95354.50
2022-09-15T15:34:54.268Z,95353.91
2022-09-15T15:38:27.070Z,95360.53
2022-09-15T15:41:35.188Z,95363.66
2022-09-15T15:44:36.851Z,95361.59
2022-09-15T15:47:38.893Z,95368.84
2022-09-15T15:50:40.753Z,95371.78
2022-09-15T15:53:42.732Z,95380.91
2022-09-15T15:56:44.573Z,95383.81
2022-09-15T15:59:46.861Z,95389.22
2022-09-15T16:02:49.465Z,95388.38
2022-09-15T16:05:53.974Z,95404.53
2022-09-15T16:08:58.237Z,95404.13
2022-09-15T16:12:00.012Z,95404.56
2022-09-15T16:15:04.612Z,95413.22
2022-09-15T16:18:06.395Z,95414.06
2022-09-15T16:21:16.918Z,95428.16
2022-09-15T16:24:18.618Z,95432.72
2022-09-15T16:27:20.253Z,95441.00
2022-09-15T16:30:21.917Z,95439.53
2022-09-15T16:33:25.001Z,95446.78
2022-09-15T16:36:27.279Z,95457.16
2022-09-15T16:39:29.635Z,95457.34
2022-09-15T16:42:31.228Z,95442.22
2022-09-15T16:45:38.238Z,95455.06
2022-09-15T16:48:43.884Z,95460.88
2022-09-15T16:51:45.720Z,95460.25
2022-09-15T16:54:47.411Z,95460.66
2022-09-15T16:57:51.525Z,95451.97
2022-09-15T17:00:53.738Z,95463.75
2022-09-15T17:03:55.901Z,95455.88
2022-09-15T17:06:57.654Z,95460.22
2022-09-15T17:09:59.316Z,95470.38
2022-09-15T17:13:01.835Z,95462.53
2022-09-15T17:16:03.892Z,95461.06
2022-09-15T17:19:05.524Z,95467.28
2022-09-15T17:22:08.590Z,95466.63
2022-09-15T17:25:24.066Z,95471.19
2022-09-15T17:28:31.256Z,95473.25
2022-09-15T17:31:33.079Z,95474.50
2022-09-15T17:34:34.959Z,95473.22
2022-09-15T17:37:36.802Z,95469.72
2022-09-15T17:40:38.631Z,95460.19
2022-09-15T17:43:40.389Z,95470.28
2022-09-15T17:46:42.070Z,95475.03
2022-09-15T17:49:43.840Z,95474.84
2022-09-15T17:52:46.398Z,95480.41
2022-09-15T17:55:49.470Z,95488.91
2022-09-15T17:58:51.442Z,95495.72
2022-09-15T18:01:53.167Z,95498.41
2022-09-15T18:04:54.832Z,95500.25
2022-09-15T18:07:59.165Z,95512.69
2022-09-15T18:11:00.889Z,95501.50
2022-09-15T18:14:02.556Z,95508.13
2022-09-15T18:17:04.250Z,95503.75
2022-09-15T18:20:06.581Z,95507.72
2022-09-15T18:23:12.951Z,95512.63
2022-09-15T18:26:14.555Z,95515.72
2022-09-15T18:29:16.207Z,95523.78
2022-09-15T18:32:17.870Z,95520.69
2022-09-15T18:35:20.876Z,95531.81
2022-09-15T18:38:23.563Z,95537.81
2022-09-15T18:41:25.242Z,95536.56
2022-09-15T18:44:29.182Z,95536.75
2022-09-15T18:47:31.181Z,95540.03
2022-09-15T18:50:32.916Z,95544.16
2022-09-15T18:53:38.583Z,95550.75
2022-09-15T18:56:40.197Z,95547.81
2022-09-15T18:59:41.960Z,95563.31
2022-09-15T19:02:44.541Z,95568.25
2022-09-15T19:05:46.255Z,95568.44
2022-09-15T19:08:47.937Z,95569.88
2022-09-15T19:11:49.488Z,95572.34
2022-09-15T19:14:51.105Z,95576.09
2022-09-15T19:17:52.925Z,95565.91
2022-09-15T19:20:54.544Z,95558.66
2022-09-15T19:23:58.658Z,95558.66
2022-09-15T19:27:01.541Z,95567.91
2022-09-15T19:30:03.991Z,95571.84
2022-09-15T19:33:05.606Z,95579.06
2022-09-15T19:36:27.512Z,95568.53
2022-09-15T19:39:29.842Z,95561.91
2022-09-15T19:42:31.446Z,95569.50
2022-09-15T19:45:33.980Z,95574.22
2022-09-15T19:48:38.639Z,95573.81
2022-09-15T19:51:43.142Z,95574.00
2022-09-15T19:54:44.779Z,95582.41
2022-09-15T19:57:46.798Z,95584.69
2022-09-15T20:00:55.322Z,95581.53
2022-09-15T20:03:57.314Z,95580.28
2022-09-15T20:06:59.002Z,95586.44
2022-09-15T20:10:01.028Z,95590.50
2022-09-15T20:13:03.108Z,95575.94
2022-09-15T20:16:06.003Z,95587.31
2022-09-15T20:19:07.940Z,95595.47
2022-09-15T20:22:10.448Z,95597.50
2022-09-15T20:25:12.141Z,95601.63
2022-09-15T20:28:13.780Z,95603.00
2022-09-15T20:31:18.287Z,95615.16
2022-09-15T20:34:19.966Z,95609.31
2022-09-15T20:37:23.047Z,95607.03
2022-09-15T20:40:26.364Z,95614.44
2022-09-15T20:43:28.093Z,95608.63
2022-09-15T20:46:31.394Z,95618.53
2022-09-15T20:49:33.096Z,95609.00
2022-09-15T20:52:38.426Z,95603.00
2022-09-15T20:55:40.275Z,95606.69
2022-09-15T20:58:42.966Z,95613.09
2022-09-15T21:01:44.651Z,95598.22
2022-09-15T21:04:46.912Z,95603.38
2022-09-15T21:07:48.532Z,95610.59
2022-09-15T21:10:50.133Z,95611.63
2022-09-15T21:13:52.493Z,95602.28
2022-09-15T21:16:54.219Z,95616.72
2022-09-15T21:19:55.889Z,95615.41
2022-09-15T21:22:57.730Z,95613.13
2022-09-15T21:26:06.381Z,95623.38
2022-09-15T21:29:08.333Z,95624.22
2022-09-15T21:32:10.034Z,95623.78
2022-09-15T21:35:11.831Z,95620.44
2022-09-15T21:38:13.615Z,95618.78
2022-09-15T21:41:17.420Z,95617.50
2022-09-15T21:44:19.024Z,95630.06
2022-09-15T21:47:20.592Z,95627.75
2022-09-15T21:50:22.222Z,95623.59
2022-09-15T21:53:24.329Z,95619.47
2022-09-15T21:56:27.629Z,95608.91
2022-09-15T21:59:29.314Z,95610.13
2022-09-15T22:02:31.239Z,95612.34
2022-09-15T22:05:33.238Z,95616.03
2022-09-15T22:08:34.901Z,95615.38
2022-09-15T22:11:37.093Z,95612.53
2022-09-15T22:14:38.735Z,95616.03
2022-09-15T22:17:40.404Z,95612.19
2022-09-15T22:20:41.990Z,95620.84
2022-09-15T22:23:44.810Z,95617.13
2022-09-15T22:26:46.405Z,95624.34
2022-09-15T22:29:47.980Z,95624.00
2022-09-15T22:32:49.950Z,95621.75
2022-09-15T22:35:52.445Z,95615.56
2022-09-15T22:38:54.435Z,95610.84
2022-09-15T22:41:56.232Z,95622.22
2022-09-15T22:44:57.941Z,95617.69
2022-09-15T22:47:59.593Z,95615.84
2022-09-15T22:51:02.561Z,95604.28
2022-09-15T22:54:04.285Z,95603.47
2022-09-15T22:57:05.916Z,95598.94
2022-09-15T23:00:08.478Z,95601.44
2022-09-15T23:03:10.912Z,95604.09
2022-09-15T23:06:12.497Z,95611.94
2022-09-15T23:09:14.079Z,95597.09
2022-09-15T23:12:16.010Z,95593.38
2022-09-15T23:15:17.785Z,95591.97
2022-09-15T23:18:19.440Z,95590.31
2022-09-15T23:21:21.336Z,95588.28
2022-09-15T23:24:23.052Z,95584.78
2022-09-15T23:27:24.674Z,95586.44
2022-09-15T23:30:26.351Z,95583.94
2022-09-15T23:33:31.582Z,95578.41
2022-09-15T23:36:33.229Z,95582.09
2022-09-15T23:39:34.856Z,95575.53
2022-09-15T23:42:37.258Z,95582.34
2022-09-15T23:45:38.921Z,95576.97
2022-09-15T23:48:40.678Z,95581.34
2022-09-15T23:51:42.257Z,95573.47
2022-09-15T23:54:43.916Z,95572.47
2022-09-15T23:57:45.554Z,95569.97
